createdAt,value
2018-12-19T00:04:05.649Z,96543.00
2018-12-19T00:09:19.792Z,96546.00
2018-12-19T00:14:26.498Z,96548.00
2018-12-19T00:19:31.139Z,96546.00
2018-12-19T00:24:43.700Z,96549.00
2018-12-19T00:29:52.169Z,96550.00
2018-12-19T00:35:04.176Z,96532.00
2018-12-19T00:40:11.858Z,96559.00
2018-12-19T00:45:24.060Z,96534.00
2018-12-19T00:50:32.431Z,96528.00
2018-12-19T00:55:40.071Z,96525.00
2018-12-19T01:00:48.991Z,96514.00
2018-12-19T01:05:58.218Z,96517.00
2018-12-19T01:11:05.112Z,96508.00
2018-12-19T01:16:11.691Z,96504.00
2018-12-19T01:21:19.233Z,96503.00
2018-12-19T01:26:28.377Z,96513.00
2018-12-19T01:31:34.259Z,96526.00
2018-12-19T01:36:39.932Z,96512.00
2018-12-19T01:41:50.331Z,96523.00
2018-12-19T01:46:57.734Z,96511.00
2018-12-19T01:52:04.900Z,96508.00
2018-12-19T01:57:14.538Z,96509.00
2018-12-19T02:02:24.249Z,96505.00
2018-12-19T02:07:31.354Z,96498.00
2018-12-19T02:12:39.544Z,96492.00
2018-12-19T02:17:46.368Z,96483.00
2018-12-19T02:22:52.655Z,96476.00
2018-12-19T02:28:00.151Z,96456.00
2018-12-19T02:33:07.703Z,96457.00
2018-12-19T02:38:15.307Z,96456.00
2018-12-19T02:43:23.004Z,96469.00
2018-12-19T02:48:29.855Z,96443.00
2018-12-19T02:53:36.375Z,96447.00
2018-12-19T02:58:43.571Z,96451.00
2018-12-19T03:03:51.573Z,96457.00
2018-12-19T03:09:00.854Z,96447.00
2018-12-19T03:14:07.839Z,96453.00
2018-12-19T03:19:14.452Z,96462.00
2018-12-19T03:24:25.319Z,96454.00
2018-12-19T03:29:35.740Z,96449.00
2018-12-19T03:34:42.633Z,96438.00
2018-12-19T03:39:50.345Z,96445.00
2018-12-19T03:45:00.372Z,96449.00
2018-12-19T03:50:10.182Z,96451.00
2018-12-19T03:55:20.202Z,96451.00
2018-12-19T04:00:30.482Z,96468.00
2018-12-19T04:05:38.919Z,96473.00
2018-12-19T04:10:45.576Z,96465.00
2018-12-19T04:15:58.271Z,96459.00
2018-12-19T04:21:08.346Z,96470.00
2018-12-19T04:26:17.298Z,96455.00
2018-12-19T04:31:27.516Z,96453.00
2018-12-19T04:36:37.057Z,96459.00
2018-12-19T04:41:41.818Z,96447.00
2018-12-19T04:46:50.656Z,96455.00
2018-12-19T04:52:05.127Z,96449.00
2018-12-19T04:57:13.943Z,96441.00
2018-12-19T05:02:23.440Z,96442.00
2018-12-19T05:07:31.942Z,96443.00
2018-12-19T05:12:56.597Z,96449.00
2018-12-19T05:18:03.445Z,96450.00
2018-12-19T05:23:14.556Z,96437.00
2018-12-19T05:28:21.640Z,96437.00
2018-12-19T05:33:25.493Z,96435.00
2018-12-19T05:38:44.587Z,96442.00
2018-12-19T05:43:47.599Z,96451.00
2018-12-19T05:48:56.494Z,96476.00
2018-12-19T05:54:08.774Z,96471.00
2018-12-19T05:59:15.233Z,96454.00
2018-12-19T06:04:20.903Z,96449.00
2018-12-19T06:09:23.804Z,96453.00
2018-12-19T06:14:29.151Z,96460.00
2018-12-19T06:19:35.226Z,96471.00
2018-12-19T06:24:44.839Z,96462.00
2018-12-19T06:29:51.648Z,96470.00
2018-12-19T06:34:58.740Z,96455.00
2018-12-19T06:40:11.161Z,96432.00
2018-12-19T06:45:21.543Z,96463.00
2018-12-19T06:50:28.103Z,96460.00
2018-12-19T06:55:35.766Z,96469.00
2018-12-19T07:00:42.020Z,96455.00
2018-12-19T07:05:52.703Z,96453.00
2018-12-19T07:11:03.594Z,96465.00
2018-12-19T07:16:10.219Z,96468.00
2018-12-19T07:21:19.982Z,96479.00
2018-12-19T07:26:27.118Z,96497.00
2018-12-19T07:31:32.384Z,96513.00
2018-12-19T07:36:37.608Z,96517.00
2018-12-19T07:41:46.794Z,96495.00
2018-12-19T07:46:54.410Z,96515.00
2018-12-19T07:52:01.718Z,96491.00
2018-12-19T07:57:10.931Z,96509.00
2018-12-19T08:02:14.318Z,96511.00
2018-12-19T08:07:21.070Z,96515.00
2018-12-19T08:12:36.023Z,96512.00
2018-12-19T08:17:40.450Z,96513.00
2018-12-19T08:22:50.353Z,96506.00
2018-12-19T08:27:57.006Z,96502.00
2018-12-19T08:33:07.139Z,96515.00
2018-12-19T08:38:16.665Z,96551.00
2018-12-19T08:43:23.511Z,96532.00
2018-12-19T08:48:35.680Z,96533.00
2018-12-19T08:53:42.725Z,96519.00
2018-12-19T08:58:54.862Z,96527.00
2018-12-19T09:04:04.230Z,96548.00
2018-12-19T09:09:12.558Z,96337.00
2018-12-19T09:14:19.736Z,96549.00
2018-12-19T09:19:27.442Z,96575.00
2018-12-19T09:24:34.454Z,96584.00
2018-12-19T09:29:41.497Z,96572.00
2018-12-19T09:34:48.110Z,96569.00
2018-12-19T09:39:59.228Z,96540.00
2018-12-19T09:45:11.528Z,96540.00
2018-12-19T09:50:19.934Z,96537.00
2018-12-19T09:55:26.643Z,96541.00
2018-12-19T10:00:34.106Z,96551.00
2018-12-19T10:05:41.622Z,96535.00
2018-12-19T10:10:48.580Z,96540.00
2018-12-19T10:15:55.386Z,96532.00
2018-12-19T10:21:01.810Z,96514.00
2018-12-19T10:26:11.962Z,96515.00
2018-12-19T10:31:21.057Z,96508.00
2018-12-19T10:36:32.677Z,96518.00
2018-12-19T10:41:41.630Z,96517.00
2018-12-19T10:46:52.219Z,96518.00
2018-12-19T10:51:58.674Z,96520.00
2018-12-19T10:57:06.086Z,96521.00
2018-12-19T11:02:13.859Z,96513.00
2018-12-19T11:07:21.438Z,96513.00
2018-12-19T11:12:28.914Z,96512.00
2018-12-19T11:17:35.862Z,96497.00
2018-12-19T11:22:47.778Z,96492.00
2018-12-19T11:27:57.278Z,96490.00
2018-12-19T11:33:05.375Z,96484.00
2018-12-19T11:38:13.354Z,96469.00
2018-12-19T11:43:20.382Z,96484.00
2018-12-19T11:53:31.042Z,96468.00
2018-12-19T11:58:37.403Z,96469.00
2018-12-19T12:03:43.898Z,96452.00
2018-12-19T12:08:55.334Z,96448.00
2018-12-19T12:14:02.314Z,96429.00
2018-12-19T12:19:12.091Z,96443.00
2018-12-19T12:24:23.883Z,96424.00
2018-12-19T12:29:29.834Z,96444.00
2018-12-19T12:34:39.027Z,96447.00
2018-12-19T12:39:45.120Z,96441.00
2018-12-19T12:44:52.216Z,96427.00
2018-12-19T12:49:59.472Z,96407.00
2018-12-19T12:55:06.183Z,96417.00
2018-12-19T13:00:14.931Z,96411.00
2018-12-19T13:05:23.773Z,96404.00
2018-12-19T13:10:36.239Z,96389.00
2018-12-19T13:15:46.778Z,96384.00
2018-12-19T13:20:58.038Z,96385.00
2018-12-19T13:26:07.210Z,96390.00
2018-12-19T13:31:16.353Z,96379.00
2018-12-19T13:36:23.790Z,96369.00
2018-12-19T13:41:30.420Z,96378.00
2018-12-19T13:46:37.686Z,96379.00
2018-12-19T13:51:44.566Z,96394.00
2018-12-19T13:56:51.791Z,96385.00
2018-12-19T14:02:04.080Z,96383.00
2018-12-19T14:07:12.479Z,96388.00
2018-12-19T14:12:22.870Z,96384.00
2018-12-19T14:17:29.041Z,96384.00
2018-12-19T14:22:35.771Z,96369.00
2018-12-19T14:27:43.608Z,96265.00
2018-12-19T14:32:51.174Z,96361.00
2018-12-19T14:37:57.639Z,96340.00
2018-12-19T14:43:07.732Z,96329.00
2018-12-19T14:48:15.939Z,96087.00
2018-12-19T14:53:25.934Z,96307.00
2018-12-19T14:58:28.730Z,96314.00
2018-12-19T15:03:35.418Z,96302.00
2018-12-19T15:08:46.307Z,96291.00
2018-12-19T15:13:55.244Z,96283.00
2018-12-19T15:19:05.358Z,96300.00
2018-12-19T15:24:13.734Z,96319.00
2018-12-19T15:29:29.838Z,96328.00
2018-12-19T15:34:33.570Z,96327.00
2018-12-19T15:39:39.521Z,96323.00
2018-12-19T15:44:42.385Z,96332.00
2018-12-19T15:49:49.474Z,96325.00
2018-12-19T15:55:00.992Z,96317.00
2018-12-19T16:05:43.646Z,96314.00
2018-12-19T16:16:29.157Z,96301.00
2018-12-19T16:21:36.575Z,96312.00
2018-12-19T16:26:54.737Z,96306.00
2018-12-19T16:37:44.762Z,96296.00
2018-12-19T16:48:21.476Z,96276.00
2018-12-19T17:09:08.935Z,96285.00
2018-12-19T17:14:13.747Z,96292.00
2018-12-19T17:19:17.611Z,96293.00
2018-12-19T17:24:25.749Z,96280.00
2018-12-19T17:29:30.027Z,96285.00
2018-12-19T17:34:33.883Z,96277.00
2018-12-19T17:39:36.898Z,96286.00
2018-12-19T17:50:20.627Z,96282.00
2018-12-19T17:55:26.484Z,96290.00
2018-12-19T18:00:30.388Z,96284.00
2018-12-19T18:05:39.175Z,96293.00
2018-12-19T18:10:48.733Z,96289.00
2018-12-19T18:15:55.067Z,96284.00
2018-12-19T18:20:57.834Z,96295.00
2018-12-19T18:26:04.104Z,96292.00
2018-12-19T18:31:09.608Z,96282.00
2018-12-19T18:47:21.033Z,96265.00
2018-12-19T18:58:06.042Z,96271.00
2018-12-19T19:03:15.085Z,96255.00
2018-12-19T19:13:53.956Z,96242.00
2018-12-19T19:18:56.810Z,96246.00
2018-12-19T19:24:00.682Z,96243.00
2018-12-19T19:29:09.379Z,96231.00
2018-12-19T19:34:12.377Z,96228.00
2018-12-19T19:39:16.376Z,96229.00
2018-12-19T19:44:20.300Z,96223.00
2018-12-19T19:49:24.741Z,96242.00
2018-12-19T20:00:09.460Z,96237.00
2018-12-19T20:05:18.249Z,95612.00
2018-12-19T20:10:28.390Z,96241.00
2018-12-19T20:21:15.357Z,96238.00
2018-12-19T20:26:25.279Z,96244.00
2018-12-19T20:31:30.713Z,96246.00
2018-12-19T20:36:34.271Z,96238.00
2018-12-19T20:41:43.043Z,96247.00
2018-12-19T20:46:46.933Z,96232.00
2018-12-19T20:51:50.746Z,96236.00
2018-12-19T20:57:02.405Z,96233.00
2018-12-19T21:02:08.918Z,96229.00
2018-12-19T21:07:17.645Z,96231.00
2018-12-19T21:12:28.910Z,96238.00
2018-12-19T21:17:41.759Z,96240.00
2018-12-19T21:22:47.781Z,96249.00
2018-12-19T21:27:57.608Z,96250.00
2018-12-19T21:33:13.967Z,96259.00
2018-12-19T21:38:18.139Z,96261.00
2018-12-19T21:43:26.918Z,96269.00
2018-12-19T21:48:36.346Z,96268.00
2018-12-19T21:53:45.584Z,96272.00
2018-12-19T21:58:55.318Z,96274.00
2018-12-19T22:04:06.600Z,96282.00
2018-12-19T22:09:15.287Z,96289.00
2018-12-19T22:14:24.659Z,96283.00
2018-12-19T22:19:32.267Z,96267.00
2018-12-19T22:24:41.120Z,96258.00
2018-12-19T22:29:50.617Z,96256.00
2018-12-19T22:34:57.650Z,96255.00
2018-12-19T22:45:07.573Z,96249.00
2018-12-19T23:00:23.762Z,96237.00
2018-12-19T23:05:36.554Z,96237.00
2018-12-19T23:10:44.486Z,96230.00
2018-12-19T23:15:54.362Z,96238.00
2018-12-19T23:21:02.657Z,96235.00
2018-12-19T23:26:09.706Z,96218.00
2018-12-19T23:31:20.974Z,96219.00
2018-12-19T23:36:27.234Z,96212.00
2018-12-19T23:41:32.620Z,96217.00
2018-12-19T23:46:39.015Z,96213.00
2018-12-19T23:51:49.190Z,96220.00
2018-12-19T23:56:57.847Z,96214.00
